createdAt,value
2023-03-19T00:00:37.370Z,0.00
2023-03-19T00:01:31.302Z,0.00
2023-03-19T00:02:31.356Z,0.00
2023-03-19T00:03:31.312Z,0.00
2023-03-19T00:04:31.273Z,0.00
2023-03-19T00:05:31.463Z,0.00
2023-03-19T00:06:31.250Z,0.00
2023-03-19T00:07:31.262Z,0.00
2023-03-19T00:08:31.228Z,0.00
2023-03-19T00:09:31.225Z,0.00
2023-03-19T00:10:31.215Z,0.00
2023-03-19T00:11:31.210Z,0.00
2023-03-19T00:12:31.218Z,0.00
2023-03-19T00:13:31.189Z,0.00
2023-03-19T00:14:31.189Z,0.00
2023-03-19T00:15:31.179Z,0.00
2023-03-19T00:16:31.166Z,0.00
2023-03-19T00:17:31.161Z,0.00
2023-03-19T00:18:31.185Z,0.00
2023-03-19T00:19:31.129Z,0.00
2023-03-19T00:20:31.112Z,0.00
2023-03-19T00:21:31.111Z,0.00
2023-03-19T00:22:31.107Z,0.00
2023-03-19T00:23:31.090Z,0.00
2023-03-19T00:24:31.066Z,0.00
2023-03-19T00:25:31.114Z,0.00
2023-03-19T00:26:31.055Z,0.00
2023-03-19T00:27:31.076Z,0.00
2023-03-19T00:28:31.042Z,0.00
2023-03-19T00:29:31.025Z,0.00
2023-03-19T00:30:31.118Z,0.00
2023-03-19T00:31:31.013Z,0.00
2023-03-19T00:32:31.033Z,0.00
2023-03-19T00:33:30.988Z,0.00
2023-03-19T00:34:30.988Z,0.00
2023-03-19T00:35:30.989Z,0.00
2023-03-19T00:36:30.961Z,0.00
2023-03-19T00:37:30.943Z,0.00
2023-03-19T00:38:30.931Z,0.00
2023-03-19T00:39:30.952Z,0.00
2023-03-19T00:40:30.913Z,0.00
2023-03-19T00:41:30.902Z,0.00
2023-03-19T00:42:30.886Z,0.00
2023-03-19T00:43:30.882Z,0.00
2023-03-19T00:44:30.877Z,0.00
2023-03-19T00:45:31.261Z,0.00
2023-03-19T00:46:30.869Z,0.00
2023-03-19T00:47:30.860Z,0.00
2023-03-19T00:48:30.822Z,0.00
2023-03-19T00:49:30.819Z,0.00
2023-03-19T00:50:30.807Z,0.00
2023-03-19T00:51:30.801Z,0.00
2023-03-19T00:52:30.802Z,0.00
2023-03-19T00:53:30.778Z,0.00
2023-03-19T00:54:30.769Z,0.00
2023-03-19T00:55:30.767Z,0.00
2023-03-19T00:56:30.745Z,0.00
2023-03-19T00:57:30.761Z,0.00
2023-03-19T00:58:30.718Z,0.00
2023-03-19T00:59:30.711Z,0.00
2023-03-19T01:00:30.706Z,0.00
2023-03-19T01:01:30.714Z,0.00
2023-03-19T01:02:30.709Z,0.00
2023-03-19T01:03:30.668Z,0.00
2023-03-19T01:04:30.804Z,0.00
2023-03-19T01:05:30.759Z,0.00
2023-03-19T01:06:30.632Z,0.00
2023-03-19T01:07:30.628Z,0.00
2023-03-19T01:08:30.616Z,0.00
2023-03-19T01:09:30.628Z,0.00
2023-03-19T01:10:30.597Z,0.00
2023-03-19T01:11:30.584Z,0.00
2023-03-19T01:12:30.564Z,0.00
2023-03-19T01:13:30.568Z,0.00
2023-03-19T01:14:30.587Z,0.00
2023-03-19T01:15:30.536Z,0.00
2023-03-19T01:16:30.528Z,0.00
2023-03-19T01:17:30.556Z,0.00
2023-03-19T01:18:30.511Z,0.00
2023-03-19T01:19:30.497Z,0.00
2023-03-19T01:20:30.496Z,0.00
2023-03-19T01:21:30.483Z,0.00
2023-03-19T01:22:30.485Z,0.00
2023-03-19T01:23:30.458Z,0.00
2023-03-19T01:24:30.461Z,0.00
2023-03-19T01:25:30.441Z,0.00
2023-03-19T01:26:30.433Z,0.00
2023-03-19T01:27:30.420Z,0.00
2023-03-19T01:28:30.413Z,0.00
2023-03-19T01:29:30.427Z,0.00
2023-03-19T01:30:30.383Z,0.00
2023-03-19T01:31:30.410Z,0.00
2023-03-19T01:32:30.429Z,0.00
2023-03-19T01:33:30.357Z,0.00
2023-03-19T01:34:30.355Z,0.00
2023-03-19T01:35:30.444Z,0.00
2023-03-19T01:36:30.325Z,0.00
2023-03-19T01:37:30.328Z,0.00
2023-03-19T01:38:30.327Z,0.00
2023-03-19T01:39:30.298Z,0.00
2023-03-19T01:40:30.280Z,0.00
2023-03-19T01:41:30.285Z,0.00
2023-03-19T01:42:30.327Z,0.00
2023-03-19T01:43:30.255Z,0.00
2023-03-19T01:44:30.241Z,0.00
2023-03-19T01:45:30.239Z,0.00
2023-03-19T01:46:30.254Z,0.00
2023-03-19T01:47:30.232Z,0.00
2023-03-19T01:48:30.236Z,0.00
2023-03-19T01:49:30.201Z,0.00
2023-03-19T01:50:30.193Z,0.00
2023-03-19T01:51:30.181Z,0.00
2023-03-19T01:52:30.174Z,0.00
2023-03-19T01:53:30.160Z,0.00
2023-03-19T01:54:30.138Z,0.00
2023-03-19T01:55:30.144Z,0.00
2023-03-19T01:56:30.123Z,0.00
2023-03-19T01:57:30.110Z,0.00
2023-03-19T01:58:30.101Z,0.00
2023-03-19T01:59:30.097Z,0.00
2023-03-19T02:00:30.115Z,0.00
2023-03-19T02:01:30.107Z,0.00
2023-03-19T02:02:30.090Z,0.00
2023-03-19T02:03:30.061Z,0.00
2023-03-19T02:04:30.085Z,0.00
2023-03-19T02:05:30.061Z,0.00
2023-03-19T02:06:30.015Z,0.00
2023-03-19T02:07:30.025Z,0.00
2023-03-19T02:08:29.995Z,0.00
2023-03-19T02:09:29.984Z,0.00
2023-03-19T02:10:29.978Z,0.00
2023-03-19T02:11:29.963Z,0.00
2023-03-19T02:12:29.979Z,0.00
2023-03-19T02:13:29.975Z,0.00
2023-03-19T02:14:29.934Z,0.00
2023-03-19T02:15:29.921Z,0.00
2023-03-19T02:16:29.968Z,0.00
2023-03-19T02:17:29.940Z,0.00
2023-03-19T02:18:29.897Z,0.00
2023-03-19T02:19:29.888Z,0.00
2023-03-19T02:20:29.870Z,0.00
2023-03-19T02:21:29.864Z,0.00
2023-03-19T02:22:29.866Z,0.00
2023-03-19T02:23:29.844Z,0.00
2023-03-19T02:24:29.828Z,0.00
2023-03-19T02:25:29.825Z,0.00
2023-03-19T02:26:29.833Z,0.00
2023-03-19T02:27:29.830Z,0.00
2023-03-19T02:28:29.793Z,0.00
2023-03-19T02:29:29.784Z,0.00
2023-03-19T02:30:29.768Z,0.00
2023-03-19T02:31:29.882Z,0.00
2023-03-19T02:32:29.853Z,0.00
2023-03-19T02:33:29.748Z,0.00
2023-03-19T02:34:29.733Z,0.00
2023-03-19T02:35:29.806Z,0.00
2023-03-19T02:36:29.713Z,0.00
2023-03-19T02:37:32.888Z,0.00
2023-03-19T02:38:29.688Z,0.00
2023-03-19T02:39:29.679Z,0.00
2023-03-19T02:40:29.690Z,0.00
2023-03-19T02:41:29.662Z,0.00
2023-03-19T02:42:29.649Z,0.00
2023-03-19T02:43:29.669Z,0.00
2023-03-19T02:44:29.642Z,0.00
2023-03-19T02:45:29.626Z,0.00
2023-03-19T02:46:29.669Z,0.00
2023-03-19T02:47:29.607Z,0.00
2023-03-19T02:48:29.593Z,0.00
2023-03-19T02:49:29.579Z,0.00
2023-03-19T02:50:29.569Z,0.00
2023-03-19T02:51:29.581Z,0.00
2023-03-19T02:52:29.543Z,0.00
2023-03-19T02:53:29.559Z,0.00
2023-03-19T02:54:29.531Z,0.00
2023-03-19T02:55:29.524Z,0.00
2023-03-19T02:56:29.507Z,0.00
2023-03-19T02:57:29.505Z,0.00
2023-03-19T02:58:29.503Z,0.00
2023-03-19T02:59:29.481Z,0.00
2023-03-19T03:00:29.494Z,0.00
2023-03-19T03:01:29.457Z,0.00
2023-03-19T03:02:29.496Z,0.00
2023-03-19T03:03:29.461Z,0.00
2023-03-19T03:04:29.426Z,0.00
2023-03-19T03:05:29.425Z,0.00
2023-03-19T03:06:29.409Z,0.00
2023-03-19T03:07:29.401Z,0.00
2023-03-19T03:08:29.406Z,0.00
2023-03-19T03:09:29.383Z,0.00
2023-03-19T03:10:29.364Z,0.00
2023-03-19T03:11:29.359Z,0.00
2023-03-19T03:12:29.350Z,0.00
2023-03-19T03:13:29.364Z,0.00
2023-03-19T03:14:29.326Z,0.00
2023-03-19T03:15:29.311Z,0.00
2023-03-19T03:16:29.355Z,0.00
2023-03-19T03:17:29.296Z,0.00
2023-03-19T03:18:29.747Z,0.00
2023-03-19T03:19:29.274Z,0.00
2023-03-19T03:20:29.279Z,0.00
2023-03-19T03:21:29.258Z,0.00
2023-03-19T03:22:29.247Z,0.00
2023-03-19T03:23:29.255Z,0.00
2023-03-19T03:24:29.227Z,0.00
2023-03-19T03:25:29.218Z,0.00
2023-03-19T03:26:29.233Z,0.00
2023-03-19T03:27:29.195Z,0.00
2023-03-19T03:28:29.194Z,0.00
2023-03-19T03:29:29.171Z,0.00
2023-03-19T03:30:29.189Z,0.00
2023-03-19T03:31:29.237Z,0.00
2023-03-19T03:32:29.148Z,0.00
2023-03-19T03:33:29.156Z,0.00
2023-03-19T03:34:29.128Z,0.00
2023-03-19T03:35:29.123Z,0.00
2023-03-19T03:36:29.143Z,0.00
2023-03-19T03:37:29.089Z,0.00
2023-03-19T03:38:29.083Z,0.00
2023-03-19T03:39:29.065Z,0.00
2023-03-19T03:40:29.062Z,0.00
2023-03-19T03:41:29.063Z,0.00
2023-03-19T03:42:29.041Z,0.00
2023-03-19T03:43:29.114Z,0.00
2023-03-19T03:44:29.022Z,0.00
2023-03-19T03:45:29.068Z,0.00
2023-03-19T03:46:29.001Z,0.00
2023-03-19T03:47:28.988Z,0.00
2023-03-19T03:48:29.008Z,0.00
2023-03-19T03:49:28.968Z,0.00
2023-03-19T03:50:28.956Z,0.00
2023-03-19T03:51:28.944Z,0.00
2023-03-19T03:52:28.935Z,0.00
2023-03-19T03:53:28.937Z,0.00
2023-03-19T03:54:28.914Z,0.00
2023-03-19T03:55:28.905Z,0.00
2023-03-19T03:56:28.894Z,0.00
2023-03-19T03:57:28.891Z,0.00
2023-03-19T03:58:28.891Z,0.00
2023-03-19T03:59:28.866Z,0.00
2023-03-19T04:00:28.865Z,0.00
2023-03-19T04:01:28.849Z,0.00
2023-03-19T04:02:28.882Z,0.00
2023-03-19T04:03:28.919Z,0.00
2023-03-19T04:04:28.819Z,0.00
2023-03-19T04:05:28.806Z,0.00
2023-03-19T04:06:28.794Z,0.00
2023-03-19T04:07:28.781Z,0.00
2023-03-19T04:08:28.788Z,0.00
2023-03-19T04:09:28.768Z,0.00
2023-03-19T04:10:28.752Z,0.00
2023-03-19T04:11:28.741Z,0.00
2023-03-19T04:12:28.732Z,0.00
2023-03-19T04:13:28.743Z,0.00
2023-03-19T04:14:28.710Z,0.00
2023-03-19T04:15:28.689Z,0.00
2023-03-19T04:16:28.783Z,0.00
2023-03-19T04:17:28.672Z,0.00
2023-03-19T04:18:28.681Z,0.00
2023-03-19T04:19:28.654Z,0.00
2023-03-19T04:20:28.645Z,0.00
2023-03-19T04:21:28.629Z,0.00
2023-03-19T04:22:28.623Z,0.00
2023-03-19T04:23:28.656Z,0.00
2023-03-19T04:24:28.602Z,0.00
2023-03-19T04:25:28.596Z,0.00
2023-03-19T04:26:28.584Z,0.00
2023-03-19T04:27:28.567Z,0.00
2023-03-19T04:28:28.577Z,0.00
2023-03-19T04:29:28.545Z,0.00
2023-03-19T04:30:28.596Z,0.00
2023-03-19T04:31:28.620Z,0.00
2023-03-19T04:32:28.522Z,0.00
2023-03-19T04:33:28.529Z,0.00
2023-03-19T04:34:28.494Z,0.00
2023-03-19T04:35:28.515Z,0.00
2023-03-19T04:36:28.488Z,0.00
2023-03-19T04:37:28.460Z,0.00
2023-03-19T04:38:28.454Z,0.00
2023-03-19T04:39:28.437Z,0.00
2023-03-19T04:40:28.432Z,0.00
2023-03-19T04:41:28.479Z,0.00
2023-03-19T04:42:28.415Z,0.00
2023-03-19T04:43:28.472Z,0.00
2023-03-19T04:44:28.393Z,0.00
2023-03-19T04:45:28.373Z,0.00
2023-03-19T04:46:28.514Z,0.00
2023-03-19T04:47:28.380Z,0.00
2023-03-19T04:48:28.370Z,0.00
2023-03-19T04:49:28.333Z,0.00
2023-03-19T04:50:28.327Z,0.00
2023-03-19T04:51:28.320Z,0.00
2023-03-19T04:52:28.306Z,0.00
2023-03-19T04:53:28.313Z,0.00
2023-03-19T04:54:28.284Z,0.00
2023-03-19T04:55:28.265Z,0.00
2023-03-19T04:56:28.278Z,0.00
2023-03-19T04:57:28.263Z,0.00
2023-03-19T04:58:28.193Z,1.00
2023-03-19T04:59:28.185Z,1.00
2023-03-19T05:00:28.188Z,1.00
2023-03-19T05:01:28.311Z,1.00
2023-03-19T05:02:28.151Z,1.00
2023-03-19T05:03:28.211Z,2.00
2023-03-19T05:04:28.140Z,2.00
2023-03-19T05:05:28.137Z,2.00
2023-03-19T05:06:28.129Z,3.00
2023-03-19T05:07:28.096Z,3.00
2023-03-19T05:08:28.103Z,4.00
2023-03-19T05:09:28.074Z,6.00
2023-03-19T05:10:28.071Z,5.00
2023-03-19T05:11:28.053Z,6.00
2023-03-19T05:12:28.049Z,9.00
2023-03-19T05:13:28.061Z,12.00
2023-03-19T05:14:28.032Z,11.00
2023-03-19T05:15:28.019Z,13.00
2023-03-19T05:16:28.023Z,18.00
2023-03-19T05:17:28.002Z,18.00
2023-03-19T05:18:28.005Z,20.00
2023-03-19T05:19:27.977Z,27.00
2023-03-19T05:20:27.970Z,36.00
2023-03-19T05:21:27.959Z,45.00
2023-03-19T05:22:27.949Z,53.00
2023-03-19T05:23:27.969Z,56.00
2023-03-19T05:24:27.929Z,65.00
2023-03-19T05:25:27.916Z,69.00
2023-03-19T05:26:27.909Z,81.00
2023-03-19T05:27:27.892Z,97.00
2023-03-19T05:28:27.903Z,113.00
2023-03-19T05:29:27.878Z,127.00
2023-03-19T05:30:27.866Z,142.00
2023-03-19T05:31:27.884Z,159.00
2023-03-19T05:32:27.893Z,174.00
2023-03-19T05:33:27.847Z,190.00
2023-03-19T05:34:27.825Z,210.00
2023-03-19T05:35:27.848Z,231.00
2023-03-19T05:36:27.807Z,246.00
2023-03-19T05:37:27.808Z,272.00
2023-03-19T05:38:27.783Z,286.00
2023-03-19T05:39:27.770Z,306.00
2023-03-19T05:40:27.762Z,323.00
2023-03-19T05:41:27.752Z,344.00
2023-03-19T05:42:27.768Z,362.00
2023-03-19T05:43:27.742Z,384.00
2023-03-19T05:44:27.732Z,410.00
2023-03-19T05:45:27.708Z,443.00
2023-03-19T05:46:27.720Z,483.00
2023-03-19T05:47:27.690Z,525.00
2023-03-19T05:48:27.700Z,569.00
2023-03-19T05:49:27.676Z,618.00
2023-03-19T05:50:27.664Z,673.00
2023-03-19T05:51:27.649Z,728.00
2023-03-19T05:52:27.640Z,785.00
2023-03-19T05:53:27.647Z,837.00
2023-03-19T05:54:27.632Z,882.00
2023-03-19T05:55:27.601Z,910.00
2023-03-19T05:56:27.606Z,932.00
2023-03-19T05:57:27.589Z,961.00
2023-03-19T05:58:27.591Z,1003.00
2023-03-19T05:59:27.564Z,1061.00
2023-03-19T06:00:27.559Z,1141.00
2023-03-19T06:01:33.614Z,1242.00
2023-03-19T06:02:29.234Z,1332.00
2023-03-19T06:03:27.532Z,1433.00
2023-03-19T06:04:27.628Z,1488.00
2023-03-19T06:05:27.506Z,1516.00
2023-03-19T06:06:27.502Z,1552.00
2023-03-19T06:07:27.507Z,1607.00
2023-03-19T06:08:27.478Z,1633.00
2023-03-19T06:09:27.465Z,1594.00
2023-03-19T06:10:27.454Z,1556.00
2023-03-19T06:11:27.448Z,1540.00
2023-03-19T06:12:27.465Z,1554.00
2023-03-19T06:13:27.441Z,1582.00
2023-03-19T06:14:27.417Z,1626.00
2023-03-19T06:15:27.401Z,1674.00
2023-03-19T06:16:27.421Z,1734.00
2023-03-19T06:17:27.399Z,1827.00
2023-03-19T06:18:27.382Z,1925.00
2023-03-19T06:19:27.361Z,2014.00
2023-03-19T06:20:27.366Z,2090.00
2023-03-19T06:21:27.341Z,2120.00
2023-03-19T06:22:27.354Z,2057.00
2023-03-19T06:23:27.339Z,2084.00
2023-03-19T06:24:27.316Z,2388.00
2023-03-19T06:25:27.301Z,2447.00
2023-03-19T06:26:27.301Z,2635.00
2023-03-19T06:27:27.280Z,3234.00
2023-03-19T06:28:27.301Z,3737.00
2023-03-19T06:29:27.260Z,3290.00
2023-03-19T06:30:27.254Z,3219.00
2023-03-19T06:31:27.266Z,2815.00
2023-03-19T06:32:27.246Z,3292.00
2023-03-19T06:33:27.234Z,3010.00
2023-03-19T06:34:27.218Z,3104.00
2023-03-19T06:35:27.267Z,3122.00
2023-03-19T06:36:27.190Z,3767.00
2023-03-19T06:37:27.178Z,3455.00
2023-03-19T06:38:27.192Z,4042.00
2023-03-19T06:39:27.158Z,2998.00
2023-03-19T06:40:27.154Z,3581.00
2023-03-19T06:41:27.135Z,3651.00
2023-03-19T06:42:27.189Z,3320.00
2023-03-19T06:43:27.109Z,3196.00
2023-03-19T06:44:27.122Z,3043.00
2023-03-19T06:45:27.091Z,2963.00
2023-03-19T06:46:27.080Z,3024.00
2023-03-19T06:47:27.084Z,3205.00
2023-03-19T06:48:27.064Z,3406.00
2023-03-19T06:49:27.048Z,3575.00
2023-03-19T06:50:27.041Z,3553.00
2023-03-19T06:51:27.028Z,4099.00
2023-03-19T06:52:27.042Z,4273.00
2023-03-19T06:53:27.000Z,4508.00
2023-03-19T06:54:26.995Z,4570.00
2023-03-19T06:55:26.994Z,4503.00
2023-03-19T06:56:26.977Z,4586.00
2023-03-19T06:57:26.982Z,5275.00
2023-03-19T06:58:26.960Z,6116.00
2023-03-19T06:59:26.958Z,7096.00
2023-03-19T07:00:26.939Z,5084.00
2023-03-19T07:01:27.002Z,7888.00
2023-03-19T07:02:26.914Z,9719.00
2023-03-19T07:03:26.901Z,7055.00
2023-03-19T07:04:27.051Z,6769.00
2023-03-19T07:05:26.875Z,10342.00
2023-03-19T07:06:26.868Z,7877.00
2023-03-19T07:07:26.865Z,4057.00
2023-03-19T07:08:26.848Z,8008.00
2023-03-19T07:09:26.830Z,7283.00
2023-03-19T07:10:26.828Z,5858.00
2023-03-19T07:11:26.811Z,5632.00
2023-03-19T07:12:26.843Z,5305.00
2023-03-19T07:13:26.791Z,5104.00
2023-03-19T07:14:26.800Z,4802.00
2023-03-19T07:15:26.766Z,4527.00
2023-03-19T07:16:26.769Z,4373.00
2023-03-19T07:17:26.749Z,4089.00
2023-03-19T07:18:26.740Z,3864.00
2023-03-19T07:19:26.746Z,3748.00
2023-03-19T07:20:26.717Z,3873.00
2023-03-19T07:21:26.705Z,4256.00
2023-03-19T07:22:26.706Z,4724.00
2023-03-19T07:23:26.685Z,4897.00
2023-03-19T07:24:26.726Z,4055.00
2023-03-19T07:25:26.666Z,7062.00
2023-03-19T07:26:26.659Z,5611.00
2023-03-19T07:27:26.642Z,5991.00
2023-03-19T07:28:26.632Z,6863.00
2023-03-19T07:29:26.650Z,7807.00
2023-03-19T07:30:26.621Z,8465.00
2023-03-19T07:31:26.635Z,8750.00
2023-03-19T07:32:26.641Z,8663.00
2023-03-19T07:33:26.578Z,9165.00
2023-03-19T07:34:26.580Z,9884.00
2023-03-19T07:35:26.572Z,10428.00
2023-03-19T07:36:26.543Z,10214.00
2023-03-19T07:37:26.541Z,9633.00
2023-03-19T07:38:26.521Z,9146.00
2023-03-19T07:39:26.537Z,9149.00
2023-03-19T07:40:26.504Z,9276.00
2023-03-19T07:41:26.498Z,9283.00
2023-03-19T07:42:26.490Z,9320.00
2023-03-19T07:43:26.475Z,9023.00
2023-03-19T07:44:26.492Z,9060.00
2023-03-19T07:45:26.453Z,8446.00
2023-03-19T07:46:26.435Z,12908.00
2023-03-19T07:47:29.380Z,9153.00
2023-03-19T07:48:26.419Z,9174.00
2023-03-19T07:49:26.434Z,18179.00
2023-03-19T07:50:26.391Z,18335.00
2023-03-19T07:51:26.394Z,12736.00
2023-03-19T07:52:26.382Z,12960.00
2023-03-19T07:53:26.366Z,9890.00
2023-03-19T07:54:26.377Z,13872.00
2023-03-19T07:55:26.343Z,10544.00
2023-03-19T07:56:26.432Z,9564.00
2023-03-19T07:57:26.328Z,9069.00
2023-03-19T07:58:26.319Z,8778.00
2023-03-19T07:59:26.331Z,8732.00
2023-03-19T08:00:26.289Z,8414.00
2023-03-19T08:01:26.283Z,8259.00
2023-03-19T08:02:26.384Z,8618.00
2023-03-19T08:03:26.260Z,8975.00
2023-03-19T08:04:26.327Z,9209.00
2023-03-19T08:05:26.240Z,9231.00
2023-03-19T08:06:26.228Z,9263.00
2023-03-19T08:07:26.216Z,9172.00
2023-03-19T08:08:26.230Z,9090.00
2023-03-19T08:09:26.326Z,9095.00
2023-03-19T08:10:26.177Z,9281.00
2023-03-19T08:11:26.199Z,9620.00
2023-03-19T08:12:26.168Z,10170.00
2023-03-19T08:13:26.180Z,10470.00
2023-03-19T08:14:26.153Z,10660.00
2023-03-19T08:15:26.131Z,10933.00
2023-03-19T08:16:26.175Z,11125.00
2023-03-19T08:17:26.112Z,11144.00
2023-03-19T08:18:26.103Z,11281.00
2023-03-19T08:19:26.100Z,11449.00
2023-03-19T08:20:26.110Z,11548.00
2023-03-19T08:21:26.082Z,11482.00
2023-03-19T08:22:26.052Z,11215.00
2023-03-19T08:23:26.042Z,11303.00
2023-03-19T08:24:26.054Z,11198.00
2023-03-19T08:25:26.034Z,11368.00
2023-03-19T08:26:26.012Z,11782.00
2023-03-19T08:27:26.047Z,12392.00
2023-03-19T08:28:26.002Z,12725.00
2023-03-19T08:29:25.993Z,12953.00
2023-03-19T08:30:25.970Z,13090.00
2023-03-19T08:31:26.014Z,12861.00
2023-03-19T08:32:25.953Z,12290.00
2023-03-19T08:33:25.956Z,11941.00
2023-03-19T08:34:25.949Z,11710.00
2023-03-19T08:35:25.918Z,11712.00
2023-03-19T08:36:25.901Z,12075.00
2023-03-19T08:37:25.901Z,13409.00
2023-03-19T08:38:25.884Z,14326.00
2023-03-19T08:39:25.906Z,13018.00
2023-03-19T08:40:25.860Z,12209.00
2023-03-19T08:41:25.850Z,11509.00
2023-03-19T08:42:25.838Z,12169.00
2023-03-19T08:43:25.828Z,10911.00
2023-03-19T08:44:25.825Z,9227.00
2023-03-19T08:45:25.806Z,6669.00
2023-03-19T08:46:25.929Z,13661.00
2023-03-19T08:47:25.788Z,14987.00
2023-03-19T08:48:25.958Z,16263.00
2023-03-19T08:49:25.788Z,17256.00
2023-03-19T08:50:25.813Z,16791.00
2023-03-19T08:51:25.742Z,15749.00
2023-03-19T08:52:25.728Z,11873.00
2023-03-19T08:53:25.718Z,12242.00
2023-03-19T08:54:25.717Z,12473.00
2023-03-19T08:55:25.721Z,11543.00
2023-03-19T08:56:25.683Z,14375.00
2023-03-19T08:57:25.679Z,17104.00
2023-03-19T08:58:25.665Z,18587.00
2023-03-19T08:59:25.674Z,16186.00
2023-03-19T09:00:25.682Z,13815.00
2023-03-19T09:01:25.687Z,14789.00
2023-03-19T09:02:25.618Z,14948.00
2023-03-19T09:03:25.627Z,15859.00
2023-03-19T09:04:25.636Z,15650.00
2023-03-19T09:05:27.102Z,16932.00
2023-03-19T09:06:25.572Z,16649.00
2023-03-19T09:07:25.577Z,16250.00
2023-03-19T09:08:25.553Z,17857.00
2023-03-19T09:09:25.583Z,17014.00
2023-03-19T09:10:25.597Z,15999.00
2023-03-19T09:11:25.597Z,15342.00
2023-03-19T09:12:25.510Z,16225.00
2023-03-19T09:13:25.568Z,11587.00
2023-03-19T09:14:25.655Z,5307.00
2023-03-19T09:15:25.487Z,27008.00
2023-03-19T09:16:25.525Z,34432.00
2023-03-19T09:17:25.466Z,8522.00
2023-03-19T09:18:25.494Z,82619.00
2023-03-19T09:19:25.516Z,82213.00
2023-03-19T09:20:25.446Z,82402.00
2023-03-19T09:21:25.427Z,80498.00
2023-03-19T09:22:25.418Z,81983.00
2023-03-19T09:23:25.418Z,83161.00
2023-03-19T09:24:25.422Z,80255.00
2023-03-19T09:25:25.389Z,80053.00
2023-03-19T09:26:25.373Z,78910.00
2023-03-19T09:27:25.369Z,76579.00
2023-03-19T09:28:25.375Z,75244.00
2023-03-19T09:29:25.368Z,73835.00
2023-03-19T09:30:25.337Z,73041.00
2023-03-19T09:31:27.270Z,37606.00
2023-03-19T09:32:25.321Z,36746.00
2023-03-19T09:33:25.299Z,31992.00
2023-03-19T09:34:25.312Z,12350.00
2023-03-19T09:35:25.278Z,14325.00
2023-03-19T09:36:25.292Z,13811.00
2023-03-19T09:37:25.263Z,5828.00
2023-03-19T09:38:25.244Z,74143.00
2023-03-19T09:39:25.324Z,67695.00
2023-03-19T09:40:25.225Z,14823.00
2023-03-19T09:41:25.308Z,72540.00
2023-03-19T09:42:25.216Z,38085.00
2023-03-19T09:43:25.200Z,33497.00
2023-03-19T09:44:25.176Z,8310.00
2023-03-19T09:45:25.197Z,36882.00
2023-03-19T09:46:25.227Z,32185.00
2023-03-19T09:47:25.159Z,32221.00
2023-03-19T09:48:25.144Z,29838.00
2023-03-19T09:49:25.133Z,27153.00
2023-03-19T09:50:25.135Z,29671.00
2023-03-19T09:51:25.164Z,30133.00
2023-03-19T09:52:25.095Z,13454.00
2023-03-19T09:53:25.104Z,29493.00
2023-03-19T09:54:25.094Z,33717.00
2023-03-19T09:55:25.110Z,34063.00
2023-03-19T09:56:25.059Z,29385.00
2023-03-19T09:57:25.084Z,5297.00
2023-03-19T09:58:25.033Z,31118.00
2023-03-19T09:59:25.063Z,5497.00
2023-03-19T10:00:25.047Z,26827.00
2023-03-19T10:01:25.061Z,34789.00
2023-03-19T10:02:24.999Z,30401.00
2023-03-19T10:03:24.990Z,30988.00
2023-03-19T10:04:25.094Z,32525.00
2023-03-19T10:05:24.979Z,30614.00
2023-03-19T10:06:24.964Z,28057.00
2023-03-19T10:07:24.956Z,27477.00
2023-03-19T10:08:24.940Z,26994.00
2023-03-19T10:09:24.979Z,27248.00
2023-03-19T10:10:24.931Z,27622.00
2023-03-19T10:11:24.908Z,30819.00
2023-03-19T10:12:24.937Z,28468.00
2023-03-19T10:13:24.881Z,28725.00
2023-03-19T10:14:24.874Z,26796.00
2023-03-19T10:15:24.926Z,26027.00
2023-03-19T10:16:24.966Z,26672.00
2023-03-19T10:17:24.891Z,27209.00
2023-03-19T10:18:24.827Z,25409.00
2023-03-19T10:19:24.845Z,31520.00
2023-03-19T10:20:24.841Z,29251.00
2023-03-19T10:21:24.802Z,28846.00
2023-03-19T10:22:24.790Z,30616.00
2023-03-19T10:23:24.809Z,25448.00
2023-03-19T10:24:24.780Z,25644.00
2023-03-19T10:25:24.813Z,31899.00
2023-03-19T10:26:24.749Z,36759.00
2023-03-19T10:27:24.753Z,35698.00
2023-03-19T10:28:24.756Z,34434.00
2023-03-19T10:29:24.766Z,29198.00
2023-03-19T10:30:24.728Z,30214.00
2023-03-19T10:31:24.727Z,34210.00
2023-03-19T10:32:24.702Z,36943.00
2023-03-19T10:33:24.683Z,71416.00
2023-03-19T10:34:24.671Z,34883.00
2023-03-19T10:35:24.683Z,35247.00
2023-03-19T10:36:24.702Z,30330.00
2023-03-19T10:37:24.650Z,10325.00
2023-03-19T10:38:24.643Z,24186.00
2023-03-19T10:39:24.639Z,28949.00
2023-03-19T10:40:24.632Z,26772.00
2023-03-19T10:41:24.622Z,16519.00
2023-03-19T10:42:24.611Z,13779.00
2023-03-19T10:43:24.578Z,12383.00
2023-03-19T10:44:24.570Z,12022.00
2023-03-19T10:45:24.662Z,10348.00
2023-03-19T10:46:24.636Z,9368.00
2023-03-19T10:47:24.548Z,9192.00
2023-03-19T10:48:25.398Z,9131.00
2023-03-19T10:49:24.522Z,10510.00
2023-03-19T10:50:24.644Z,10342.00
2023-03-19T10:51:24.532Z,10828.00
2023-03-19T10:52:24.509Z,11129.00
2023-03-19T10:53:24.484Z,10841.00
2023-03-19T10:54:24.490Z,10318.00
2023-03-19T10:55:24.472Z,9556.00
2023-03-19T10:56:24.450Z,8978.00
2023-03-19T10:57:24.460Z,9236.00
2023-03-19T10:58:24.424Z,9889.00
2023-03-19T10:59:24.414Z,10581.00
2023-03-19T11:00:24.480Z,10681.00
2023-03-19T11:01:24.432Z,10936.00
2023-03-19T11:02:24.417Z,4893.00
2023-03-19T11:03:24.430Z,35183.00
2023-03-19T11:04:24.380Z,30024.00
2023-03-19T11:05:24.392Z,16788.00
2023-03-19T11:06:24.338Z,18613.00
2023-03-19T11:07:24.325Z,17928.00
2023-03-19T11:08:35.156Z,16823.00
2023-03-19T11:09:24.323Z,15086.00
2023-03-19T11:10:24.325Z,5449.00
2023-03-19T11:11:24.286Z,23106.00
2023-03-19T11:12:24.272Z,65247.00
2023-03-19T11:13:24.256Z,16914.00
2023-03-19T11:14:24.242Z,15233.00
2023-03-19T11:15:24.258Z,77457.00
2023-03-19T11:16:24.271Z,79634.00
2023-03-19T11:17:24.221Z,65157.00
2023-03-19T11:18:24.226Z,25659.00
2023-03-19T11:19:24.193Z,22281.00
2023-03-19T11:20:24.199Z,19221.00
2023-03-19T11:21:24.192Z,16828.00
2023-03-19T11:22:24.158Z,14915.00
2023-03-19T11:23:24.150Z,13632.00
2023-03-19T11:24:24.158Z,12251.00
2023-03-19T11:25:24.147Z,11378.00
2023-03-19T11:26:24.133Z,10637.00
2023-03-19T11:27:24.146Z,10115.00
2023-03-19T11:28:26.149Z,9342.00
2023-03-19T11:29:24.088Z,8414.00
2023-03-19T11:30:24.147Z,7425.00
2023-03-19T11:31:24.176Z,6150.00
2023-03-19T11:32:24.088Z,5339.00
2023-03-19T11:33:24.168Z,5011.00
2023-03-19T11:34:24.039Z,5375.00
2023-03-19T11:35:24.040Z,4077.00
2023-03-19T11:36:24.063Z,17045.00
2023-03-19T11:37:24.007Z,13818.00
2023-03-19T11:38:23.992Z,14493.00
2023-03-19T11:39:23.996Z,15481.00
2023-03-19T11:40:25.265Z,16447.00
2023-03-19T11:41:23.986Z,17061.00
2023-03-19T11:42:23.965Z,17202.00
2023-03-19T11:43:23.945Z,17848.00
2023-03-19T11:44:23.938Z,8681.00
2023-03-19T11:45:24.069Z,80723.00
2023-03-19T11:46:24.003Z,81335.00
2023-03-19T11:47:27.451Z,81186.00
2023-03-19T11:48:23.964Z,80198.00
2023-03-19T11:49:23.894Z,80445.00
2023-03-19T11:50:23.895Z,66329.00
2023-03-19T11:51:23.856Z,28633.00
2023-03-19T11:52:23.974Z,25008.00
2023-03-19T11:53:23.837Z,28829.00
2023-03-19T11:54:23.829Z,29587.00
2023-03-19T11:55:23.853Z,22265.00
2023-03-19T11:56:23.847Z,18441.00
2023-03-19T11:57:23.791Z,16404.00
2023-03-19T11:58:23.785Z,23522.00
2023-03-19T11:59:23.787Z,20968.00
2023-03-19T12:00:23.766Z,19155.00
2023-03-19T12:01:23.785Z,16779.00
2023-03-19T12:02:23.772Z,17142.00
2023-03-19T12:03:23.773Z,16422.00
2023-03-19T12:04:23.749Z,14676.00
2023-03-19T12:05:23.726Z,14919.00
2023-03-19T12:06:23.739Z,14185.00
2023-03-19T12:07:23.715Z,13530.00
2023-03-19T12:08:23.689Z,13842.00
2023-03-19T12:09:23.671Z,14416.00
2023-03-19T12:10:23.907Z,13827.00
2023-03-19T12:11:23.654Z,13193.00
2023-03-19T12:12:26.377Z,13606.00
2023-03-19T12:13:23.642Z,14526.00
2023-03-19T12:14:23.634Z,13996.00
2023-03-19T12:15:23.618Z,13462.00
2023-03-19T12:16:23.656Z,13628.00
2023-03-19T12:17:23.587Z,14271.00
2023-03-19T12:18:23.582Z,13672.00
2023-03-19T12:19:23.597Z,12426.00
2023-03-19T12:20:23.579Z,11643.00
2023-03-19T12:21:23.574Z,10070.00
2023-03-19T12:22:23.553Z,8091.00
2023-03-19T12:23:23.519Z,6367.00
2023-03-19T12:24:23.528Z,5889.00
2023-03-19T12:25:23.537Z,6445.00
2023-03-19T12:26:23.525Z,8111.00
2023-03-19T12:27:23.478Z,9160.00
2023-03-19T12:28:23.477Z,9101.00